sensor_id;sensor_type;location;lat;lon;timestamp;pressure;altitude;pressure_sealevel;temperature;humidity
17438;BME280;70275;52.198;5.422;2023-06-10T00:00:19;101395.03;;;22.20;43.72
17438;BME280;70275;52.198;5.422;2023-06-10T00:02:48;101391.63;;;22.11;43.81
17438;BME280;70275;52.198;5.422;2023-06-10T00:05:17;101398.66;;;22.12;43.68
17438;BME280;70275;52.198;5.422;2023-06-10T00:07:50;101397.09;;;22.18;43.41
17438;BME280;70275;52.198;5.422;2023-06-10T00:10:21;101396.41;;;21.95;43.83
17438;BME280;70275;52.198;5.422;2023-06-10T00:12:50;101401.72;;;21.88;43.75
17438;BME280;70275;52.198;5.422;2023-06-10T00:15:19;101400.59;;;21.83;43.47
17438;BME280;70275;52.198;5.422;2023-06-10T00:17:48;101404.69;;;21.93;43.64
17438;BME280;70275;52.198;5.422;2023-06-10T00:20:21;101407.50;;;21.85;43.08
17438;BME280;70275;52.198;5.422;2023-06-10T00:22:53;101404.03;;;21.91;43.31
17438;BME280;70275;52.198;5.422;2023-06-10T00:25:22;101402.44;;;21.82;43.28
17438;BME280;70275;52.198;5.422;2023-06-10T00:27:51;101391.19;;;21.93;43.11
17438;BME280;70275;52.198;5.422;2023-06-10T00:30:20;101408.41;;;21.92;43.19
17438;BME280;70275;52.198;5.422;2023-06-10T00:32:50;101402.75;;;21.87;42.98
17438;BME280;70275;52.198;5.422;2023-06-10T00:35:19;101406.91;;;21.75;42.87
17438;BME280;70275;52.198;5.422;2023-06-10T00:37:48;101412.16;;;21.62;43.31
17438;BME280;70275;52.198;5.422;2023-06-10T00:40:19;101411.94;;;21.64;43.04
17438;BME280;70275;52.198;5.422;2023-06-10T00:42:48;101410.94;;;21.50;42.88
17438;BME280;70275;52.198;5.422;2023-06-10T00:45:17;101404.78;;;21.71;43.20
17438;BME280;70275;52.198;5.422;2023-06-10T00:47:46;101412.50;;;21.74;43.28
17438;BME280;70275;52.198;5.422;2023-06-10T00:50:15;101408.25;;;21.50;42.97
17438;BME280;70275;52.198;5.422;2023-06-10T00:52:44;101415.78;;;21.55;42.89
17438;BME280;70275;52.198;5.422;2023-06-10T00:55:16;101412.91;;;21.41;43.16
17438;BME280;70275;52.198;5.422;2023-06-10T00:57:48;101411.59;;;21.52;43.73
17438;BME280;70275;52.198;5.422;2023-06-10T01:00:18;101403.59;;;21.44;42.97
17438;BME280;70275;52.198;5.422;2023-06-10T01:02:47;101405.44;;;21.29;43.18
17438;BME280;70275;52.198;5.422;2023-06-10T01:05:18;101411.31;;;21.32;43.75
17438;BME280;70275;52.198;5.422;2023-06-10T01:07:55;101418.47;;;21.40;43.38
17438;BME280;70275;52.198;5.422;2023-06-10T01:10:33;101417.66;;;21.39;43.70
17438;BME280;70275;52.198;5.422;2023-06-10T01:13:10;101413.06;;;21.40;43.80
17438;BME280;70275;52.198;5.422;2023-06-10T01:15:40;101421.16;;;21.25;44.17
17438;BME280;70275;52.198;5.422;2023-06-10T01:18:11;101419.56;;;21.31;43.94
17438;BME280;70275;52.198;5.422;2023-06-10T01:20:42;101417.28;;;21.28;44.08
17438;BME280;70275;52.198;5.422;2023-06-10T01:23:16;101426.81;;;21.16;44.35
17438;BME280;70275;52.198;5.422;2023-06-10T01:25:53;101423.47;;;21.14;44.50
17438;BME280;70275;52.198;5.422;2023-06-10T01:28:31;101429.25;;;21.03;45.01
17438;BME280;70275;52.198;5.422;2023-06-10T01:31:15;101423.84;;;21.11;44.70
17438;BME280;70275;52.198;5.422;2023-06-10T01:33:51;101419.84;;;21.07;44.87
17438;BME280;70275;52.198;5.422;2023-06-10T01:36:23;101419.84;;;21.07;45.05
17438;BME280;70275;52.198;5.422;2023-06-10T01:38:56;101419.66;;;21.08;45.30
17438;BME280;70275;52.198;5.422;2023-06-10T01:41:27;101419.28;;;21.11;44.92
17438;BME280;70275;52.198;5.422;2023-06-10T01:43:57;101417.47;;;21.04;45.41
17438;BME280;70275;52.198;5.422;2023-06-10T01:46:26;101418.34;;;20.82;45.93
17438;BME280;70275;52.198;5.422;2023-06-10T01:48:56;101416.94;;;20.71;46.04
17438;BME280;70275;52.198;5.422;2023-06-10T01:51:25;101421.56;;;20.62;46.28
17438;BME280;70275;52.198;5.422;2023-06-10T01:53:56;101411.63;;;20.63;46.32
17438;BME280;70275;52.198;5.422;2023-06-10T01:56:25;101417.88;;;20.78;45.96
17438;BME280;70275;52.198;5.422;2023-06-10T01:58:54;101412.03;;;20.74;46.15
17438;BME280;70275;52.198;5.422;2023-06-10T02:01:25;101417.38;;;20.60;46.41
17438;BME280;70275;52.198;5.422;2023-06-10T02:03:54;101413.38;;;20.56;46.48
17438;BME280;70275;52.198;5.422;2023-06-10T02:06:22;101417.25;;;20.53;46.78
17438;BME280;70275;52.198;5.422;2023-06-10T02:08:51;101416.94;;;20.48;46.77
17438;BME280;70275;52.198;5.422;2023-06-10T02:11:23;101421.69;;;20.46;47.25
17438;BME280;70275;52.198;5.422;2023-06-10T02:13:52;101418.03;;;20.39;47.16
17438;BME280;70275;52.198;5.422;2023-06-10T02:16:21;101413.44;;;20.40;47.41
17438;BME280;70275;52.198;5.422;2023-06-10T02:18:51;101422.75;;;20.37;47.38
17438;BME280;70275;52.198;5.422;2023-06-10T02:21:20;101425.06;;;20.40;47.33
17438;BME280;70275;52.198;5.422;2023-06-10T02:23:49;101416.94;;;20.48;47.18
17438;BME280;70275;52.198;5.422;2023-06-10T02:26:18;101429.78;;;20.38;47.68
17438;BME280;70275;52.198;5.422;2023-06-10T02:28:51;101431.25;;;20.18;48.14
17438;BME280;70275;52.198;5.422;2023-06-10T02:31:20;101430.22;;;20.19;47.99
17438;BME280;70275;52.198;5.422;2023-06-10T02:33:51;101428.69;;;20.33;47.82
17438;BME280;70275;52.198;5.422;2023-06-10T02:36:19;101442.34;;;20.15;48.68
17438;BME280;70275;52.198;5.422;2023-06-10T02:38:50;101431.41;;;20.25;48.48
17438;BME280;70275;52.198;5.422;2023-06-10T02:41:18;101435.47;;;20.13;48.82
17438;BME280;70275;52.198;5.422;2023-06-10T02:43:50;101440.31;;;20.17;48.79
17438;BME280;70275;52.198;5.422;2023-06-10T02:46:19;101433.28;;;20.16;48.79
17438;BME280;70275;52.198;5.422;2023-06-10T02:48:48;101433.50;;;20.06;49.10
17438;BME280;70275;52.198;5.422;2023-06-10T02:51:17;101432.25;;;20.17;48.75
17438;BME280;70275;52.198;5.422;2023-06-10T02:53:46;101439.22;;;20.03;49.25
17438;BME280;70275;52.198;5.422;2023-06-10T02:56:17;101435.88;;;20.01;49.59
17438;BME280;70275;52.198;5.422;2023-06-10T02:58:46;101437.19;;;20.05;49.48
17438;BME280;70275;52.198;5.422;2023-06-10T03:01:18;101437.13;;;19.91;49.59
17438;BME280;70275;52.198;5.422;2023-06-10T03:03:47;101430.19;;;19.96;49.85
17438;BME280;70275;52.198;5.422;2023-06-10T03:06:16;101431.38;;;19.94;49.98
17438;BME280;70275;52.198;5.422;2023-06-10T03:08:45;101426.56;;;19.81;50.39
17438;BME280;70275;52.198;5.422;2023-06-10T03:11:14;101433.13;;;19.79;50.12
17438;BME280;70275;52.198;5.422;2023-06-10T03:13:43;101441.53;;;19.76;50.61
17438;BME280;70275;52.198;5.422;2023-06-10T03:16:12;101439.72;;;19.68;50.53
17438;BME280;70275;52.198;5.422;2023-06-10T03:18:43;101440.09;;;19.65;50.87
17438;BME280;70275;52.198;5.422;2023-06-10T03:21:12;101438.94;;;19.52;51.07
17438;BME280;70275;52.198;5.422;2023-06-10T03:23:41;101440.59;;;19.61;50.75
17438;BME280;70275;52.198;5.422;2023-06-10T03:26:11;101443.09;;;19.62;50.74
17438;BME280;70275;52.198;5.422;2023-06-10T03:28:41;101442.06;;;19.63;51.27
17438;BME280;70275;52.198;5.422;2023-06-10T03:31:10;101443.50;;;19.51;51.28
17438;BME280;70275;52.198;5.422;2023-06-10T03:33:39;101442.31;;;19.54;51.27
17438;BME280;70275;52.198;5.422;2023-06-10T03:36:11;101439.97;;;19.42;51.38
17438;BME280;70275;52.198;5.422;2023-06-10T03:38:39;101442.66;;;19.51;51.55
17438;BME280;70275;52.198;5.422;2023-06-10T03:41:08;101442.81;;;19.33;51.76
17438;BME280;70275;52.198;5.422;2023-06-10T03:43:37;101447.31;;;19.57;51.33
17438;BME280;70275;52.198;5.422;2023-06-10T03:46:07;101444.09;;;19.61;51.19
17438;BME280;70275;52.198;5.422;2023-06-10T03:48:36;101459.56;;;19.67;51.58
17438;BME280;70275;52.198;5.422;2023-06-10T03:51:05;101453.69;;;19.64;51.49
17438;BME280;70275;52.198;5.422;2023-06-10T03:53:37;101460.44;;;19.52;51.97
17438;BME280;70275;52.198;5.422;2023-06-10T03:56:06;101453.72;;;19.56;51.72
17438;BME280;70275;52.198;5.422;2023-06-10T03:58:34;101452.41;;;19.44;52.01
17438;BME280;70275;52.198;5.422;2023-06-10T04:01:03;101457.63;;;19.37;52.23
17438;BME280;70275;52.198;5.422;2023-06-10T04:03:33;101454.25;;;19.27;52.42
17438;BME280;70275;52.198;5.422;2023-06-10T04:06:01;101453.78;;;19.39;52.39
17438;BME280;70275;52.198;5.422;2023-06-10T04:08:31;101461.13;;;19.46;52.56
17438;BME280;70275;52.198;5.422;2023-06-10T04:11:02;101459.09;;;19.56;51.88
17438;BME280;70275;52.198;5.422;2023-06-10T04:13:31;101465.84;;;19.35;52.77
17438;BME280;70275;52.198;5.422;2023-06-10T04:16:00;101466.50;;;19.54;52.37
17438;BME280;70275;52.198;5.422;2023-06-10T04:18:29;101465.66;;;19.29;52.84
17438;BME280;70275;52.198;5.422;2023-06-10T04:20:58;101467.19;;;19.48;52.79
17438;BME280;70275;52.198;5.422;2023-06-10T04:23:27;101471.03;;;19.45;52.74
17438;BME280;70275;52.198;5.422;2023-06-10T04:25:56;101477.56;;;19.59;52.45
17438;BME280;70275;52.198;5.422;2023-06-10T04:28:28;101474.84;;;19.67;52.67
17438;BME280;70275;52.198;5.422;2023-06-10T04:30:57;101472.53;;;19.56;52.72
17438;BME280;70275;52.198;5.422;2023-06-10T04:33:26;101477.88;;;19.64;52.76
17438;BME280;70275;52.198;5.422;2023-06-10T04:35:55;101471.13;;;19.68;52.79
17438;BME280;70275;52.198;5.422;2023-06-10T04:38:23;101476.56;;;19.60;53.21
17438;BME280;70275;52.198;5.422;2023-06-10T04:40:53;101483.78;;;19.67;52.96
17438;BME280;70275;52.198;5.422;2023-06-10T04:43:22;101481.91;;;19.68;53.16
17438;BME280;70275;52.198;5.422;2023-06-10T04:45:53;101476.50;;;19.84;52.87
17438;BME280;70275;52.198;5.422;2023-06-10T04:48:22;101480.88;;;19.77;53.13
17438;BME280;70275;52.198;5.422;2023-06-10T04:50:52;101485.47;;;19.60;53.21
17438;BME280;70275;52.198;5.422;2023-06-10T04:53:22;101477.72;;;19.65;53.51
17438;BME280;70275;52.198;5.422;2023-06-10T04:55:51;101480.31;;;19.89;52.75
17438;BME280;70275;52.198;5.422;2023-06-10T04:58:20;101485.53;;;19.91;53.06
17438;BME280;70275;52.198;5.422;2023-06-10T05:00:49;101483.81;;;19.98;53.20
17438;BME280;70275;52.198;5.422;2023-06-10T05:03:20;101482.28;;;20.03;53.25
17438;BME280;70275;52.198;5.422;2023-06-10T05:05:49;101488.16;;;20.07;52.77
17438;BME280;70275;52.198;5.422;2023-06-10T05:08:18;101483.91;;;20.13;52.66
17438;BME280;70275;52.198;5.422;2023-06-10T05:10:47;101485.38;;;20.31;52.21
17438;BME280;70275;52.198;5.422;2023-06-10T05:13:16;101491.03;;;20.44;52.15
17438;BME280;70275;52.198;5.422;2023-06-10T05:15:46;101490.09;;;20.29;52.39
17438;BME280;70275;52.198;5.422;2023-06-10T05:18:15;101488.44;;;20.20;52.92
17438;BME280;70275;52.198;5.422;2023-06-10T05:20:46;101495.66;;;20.28;52.92
17438;BME280;70275;52.198;5.422;2023-06-10T05:23:15;101484.09;;;20.11;53.29
17438;BME280;70275;52.198;5.422;2023-06-10T05:25:44;101493.53;;;20.46;52.69
17438;BME280;70275;52.198;5.422;2023-06-10T05:28:13;101493.19;;;20.49;52.51
17438;BME280;70275;52.198;5.422;2023-06-10T05:30:43;101489.38;;;20.35;52.75
17438;BME280;70275;52.198;5.422;2023-06-10T05:33:12;101498.25;;;20.44;52.51
17438;BME280;70275;52.198;5.422;2023-06-10T05:35:41;101496.41;;;20.44;52.53
17438;BME280;70275;52.198;5.422;2023-06-10T05:38:12;101492.38;;;20.40;52.53
17438;BME280;70275;52.198;5.422;2023-06-10T05:40:41;101492.47;;;20.55;52.51
17438;BME280;70275;52.198;5.422;2023-06-10T05:43:10;101497.53;;;20.72;51.71
17438;BME280;70275;52.198;5.422;2023-06-10T05:45:40;101505.72;;;20.56;52.14
17438;BME280;70275;52.198;5.422;2023-06-10T05:48:08;101499.22;;;20.73;51.95
17438;BME280;70275;52.198;5.422;2023-06-10T05:50:37;101500.38;;;20.79;51.51
17438;BME280;70275;52.198;5.422;2023-06-10T05:53:08;101503.25;;;20.77;51.48
17438;BME280;70275;52.198;5.422;2023-06-10T05:55:44;101502.88;;;20.81;51.68
17438;BME280;70275;52.198;5.422;2023-06-10T05:58:15;101503.72;;;21.04;51.28
17438;BME280;70275;52.198;5.422;2023-06-10T06:00:43;101508.88;;;21.13;50.91
17438;BME280;70275;52.198;5.422;2023-06-10T06:03:12;101499.66;;;21.08;50.86
17438;BME280;70275;52.198;5.422;2023-06-10T06:05:41;101498.38;;;21.56;49.86
17438;BME280;70275;52.198;5.422;2023-06-10T06:08:11;101502.47;;;21.66;50.23
17438;BME280;70275;52.198;5.422;2023-06-10T06:10:47;101503.31;;;21.81;49.35
17438;BME280;70275;52.198;5.422;2023-06-10T06:13:16;101503.16;;;21.97;49.38
17438;BME280;70275;52.198;5.422;2023-06-10T06:15:45;101504.97;;;21.68;49.58
17438;BME280;70275;52.198;5.422;2023-06-10T06:18:14;101508.00;;;21.87;49.36
17438;BME280;70275;52.198;5.422;2023-06-10T06:20:44;101508.00;;;21.87;49.15
17438;BME280;70275;52.198;5.422;2023-06-10T06:23:13;101504.09;;;22.04;48.73
17438;BME280;70275;52.198;5.422;2023-06-10T06:25:42;101506.16;;;22.24;49.17
17438;BME280;70275;52.198;5.422;2023-06-10T06:28:13;101503.25;;;22.40;48.18
17438;BME280;70275;52.198;5.422;2023-06-10T06:30:42;101505.44;;;22.30;48.27
17438;BME280;70275;52.198;5.422;2023-06-10T06:33:11;101502.28;;;22.62;48.02
17438;BME280;70275;52.198;5.422;2023-06-10T06:35:40;101504.94;;;22.41;48.07
17438;BME280;70275;52.198;5.422;2023-06-10T06:38:09;101495.25;;;22.46;47.59
17438;BME280;70275;52.198;5.422;2023-06-10T06:40:38;101498.00;;;22.53;47.77
17438;BME280;70275;52.198;5.422;2023-06-10T06:43:07;101504.75;;;22.78;47.44
17438;BME280;70275;52.198;5.422;2023-06-10T06:45:38;101508.34;;;22.49;47.85
17438;BME280;70275;52.198;5.422;2023-06-10T06:48:07;101504.69;;;22.93;47.68
17438;BME280;70275;52.198;5.422;2023-06-10T06:50:36;101512.84;;;22.99;46.77
17438;BME280;70275;52.198;5.422;2023-06-10T06:53:07;101506.41;;;23.00;46.74
17438;BME280;70275;52.198;5.422;2023-06-10T06:55:36;101503.97;;;23.05;46.43
17438;BME280;70275;52.198;5.422;2023-06-10T06:58:05;101501.13;;;23.13;45.99
17438;BME280;70275;52.198;5.422;2023-06-10T07:00:34;101499.56;;;23.25;46.36
17438;BME280;70275;52.198;5.422;2023-06-10T07:03:06;101499.94;;;22.73;47.10
17438;BME280;70275;52.198;5.422;2023-06-10T07:05:35;101506.53;;;23.13;46.92
17438;BME280;70275;52.198;5.422;2023-06-10T07:08:05;101500.97;;;23.42;46.47
17438;BME280;70275;52.198;5.422;2023-06-10T07:10:34;101511.38;;;23.39;45.85
17438;BME280;70275;52.198;5.422;2023-06-10T07:13:03;101515.06;;;23.66;45.14
17438;BME280;70275;52.198;5.422;2023-06-10T07:15:32;101517.03;;;23.78;44.71
17438;BME280;70275;52.198;5.422;2023-06-10T07:18:01;101514.09;;;24.07;44.57
17438;BME280;70275;52.198;5.422;2023-06-10T07:20:32;101509.63;;;23.93;44.52
17438;BME280;70275;52.198;5.422;2023-06-10T07:23:01;101514.25;;;23.99;44.25
17438;BME280;70275;52.198;5.422;2023-06-10T07:25:31;101509.44;;;23.95;44.28
17438;BME280;70275;52.198;5.422;2023-06-10T07:28:00;101521.47;;;24.20;43.95
17438;BME280;70275;52.198;5.422;2023-06-10T07:30:29;101511.00;;;24.10;43.46
17438;BME280;70275;52.198;5.422;2023-06-10T07:32:58;101512.00;;;24.09;43.84
17438;BME280;70275;52.198;5.422;2023-06-10T07:35:28;101514.69;;;24.44;42.82
17438;BME280;70275;52.198;5.422;2023-06-10T07:37:59;101508.13;;;24.86;42.93
17438;BME280;70275;52.198;5.422;2023-06-10T07:40:28;101507.81;;;24.48;43.64
17438;BME280;70275;52.198;5.422;2023-06-10T07:42:57;101511.16;;;24.56;43.34
17438;BME280;70275;52.198;5.422;2023-06-10T07:45:26;101516.69;;;24.96;42.16
17438;BME280;70275;52.198;5.422;2023-06-10T07:47:55;101521.19;;;24.62;43.11
17438;BME280;70275;52.198;5.422;2023-06-10T07:50:24;101514.38;;;24.86;42.70
17438;BME280;70275;52.198;5.422;2023-06-10T07:52:52;101515.78;;;24.62;42.81
17438;BME280;70275;52.198;5.422;2023-06-10T07:55:24;101516.28;;;25.12;42.05
17438;BME280;70275;52.198;5.422;2023-06-10T07:57:53;101520.88;;;25.44;41.49
17438;BME280;70275;52.198;5.422;2023-06-10T08:00:23;101525.47;;;25.11;41.92
17438;BME280;70275;52.198;5.422;2023-06-10T08:02:52;101527.13;;;24.92;42.34
17438;BME280;70275;52.198;5.422;2023-06-10T08:05:21;101524.25;;;25.46;41.97
17438;BME280;70275;52.198;5.422;2023-06-10T08:07:50;101522.13;;;25.68;41.04
17438;BME280;70275;52.198;5.422;2023-06-10T08:10:19;101521.88;;;25.82;41.12
17438;BME280;70275;52.198;5.422;2023-06-10T08:12:50;101532.81;;;26.33;39.98
17438;BME280;70275;52.198;5.422;2023-06-10T08:15:19;101522.47;;;25.97;40.07
17438;BME280;70275;52.198;5.422;2023-06-10T08:17:48;101528.09;;;26.02;39.60
17438;BME280;70275;52.198;5.422;2023-06-10T08:20:18;101529.22;;;25.75;39.74
17438;BME280;70275;52.198;5.422;2023-06-10T08:22:46;101521.03;;;25.88;39.49
17438;BME280;70275;52.198;5.422;2023-06-10T08:25:16;101526.00;;;26.17;39.80
17438;BME280;70275;52.198;5.422;2023-06-10T08:27:45;101523.66;;;26.21;39.37
17438;BME280;70275;52.198;5.422;2023-06-10T08:30:17;101515.63;;;26.46;40.09
17438;BME280;70275;52.198;5.422;2023-06-10T08:32:46;101530.69;;;26.42;39.85
17438;BME280;70275;52.198;5.422;2023-06-10T08:35:15;101528.75;;;26.49;39.49
17438;BME280;70275;52.198;5.422;2023-06-10T08:37:43;101524.63;;;26.84;38.39
17438;BME280;70275;52.198;5.422;2023-06-10T08:40:13;101521.44;;;27.18;37.74
17438;BME280;70275;52.198;5.422;2023-06-10T08:42:49;101528.94;;;26.54;40.17
17438;BME280;70275;52.198;5.422;2023-06-10T08:45:24;101527.38;;;27.09;38.43
17438;BME280;70275;52.198;5.422;2023-06-10T08:47:59;101519.72;;;26.99;39.05
17438;BME280;70275;52.198;5.422;2023-06-10T08:50:29;101525.72;;;27.39;37.97
17438;BME280;70275;52.198;5.422;2023-06-10T08:53:00;101530.59;;;27.55;37.78
17438;BME280;70275;52.198;5.422;2023-06-10T08:55:33;101526.69;;;27.44;36.93
17438;BME280;70275;52.198;5.422;2023-06-10T08:58:04;101530.72;;;27.35;37.83
17438;BME280;70275;52.198;5.422;2023-06-10T09:00:36;101527.75;;;27.43;37.85
17438;BME280;70275;52.198;5.422;2023-06-10T09:03:05;101526.34;;;27.59;37.04
17438;BME280;70275;52.198;5.422;2023-06-10T09:05:34;101528.72;;;27.74;36.43
17438;BME280;70275;52.198;5.422;2023-06-10T09:08:06;101536.47;;;26.96;37.15
17438;BME280;70275;52.198;5.422;2023-06-10T09:10:36;101531.63;;;27.29;37.30
17438;BME280;70275;52.198;5.422;2023-06-10T09:13:05;101526.59;;;27.58;37.15
17438;BME280;70275;52.198;5.422;2023-06-10T09:15:37;101526.81;;;27.74;36.78
17438;BME280;70275;52.198;5.422;2023-06-10T09:18:07;101525.25;;;27.85;36.84
17438;BME280;70275;52.198;5.422;2023-06-10T09:20:38;101523.47;;;28.15;35.95
17438;BME280;70275;52.198;5.422;2023-06-10T09:23:07;101525.94;;;28.16;35.46
17438;BME280;70275;52.198;5.422;2023-06-10T09:25:38;101528.53;;;27.50;36.47
17438;BME280;70275;52.198;5.422;2023-06-10T09:28:14;101522.44;;;27.48;36.90
17438;BME280;70275;52.198;5.422;2023-06-10T09:30:46;101520.81;;;28.08;36.21
17438;BME280;70275;52.198;5.422;2023-06-10T09:33:16;101515.78;;;28.23;34.90
17438;BME280;70275;52.198;5.422;2023-06-10T09:35:49;101531.31;;;28.41;35.74
17438;BME280;70275;52.198;5.422;2023-06-10T09:38:21;101522.84;;;28.13;36.05
17438;BME280;70275;52.198;5.422;2023-06-10T09:40:52;101525.84;;;28.59;35.50
17438;BME280;70275;52.198;5.422;2023-06-10T09:43:21;101522.44;;;29.17;34.42
17438;BME280;70275;52.198;5.422;2023-06-10T09:45:56;101514.22;;;29.05;33.88
17438;BME280;70275;52.198;5.422;2023-06-10T09:48:26;101516.19;;;28.57;34.64
17438;BME280;70275;52.198;5.422;2023-06-10T09:50:54;101521.19;;;28.89;34.38
17438;BME280;70275;52.198;5.422;2023-06-10T09:53:23;101521.00;;;28.43;35.65
17438;BME280;70275;52.198;5.422;2023-06-10T09:55:53;101522.63;;;28.92;34.79
17438;BME280;70275;52.198;5.422;2023-06-10T09:58:36;101514.53;;;29.27;33.94
17438;BME280;70275;52.198;5.422;2023-06-10T10:01:10;101516.72;;;28.65;33.73
17438;BME280;70275;52.198;5.422;2023-06-10T10:03:47;101496.78;;;28.95;33.64
17438;BME280;70275;52.198;5.422;2023-06-10T10:06:18;101517.38;;;29.20;33.53
17438;BME280;70275;52.198;5.422;2023-06-10T10:08:50;101509.84;;;28.63;33.44
17438;BME280;70275;52.198;5.422;2023-06-10T10:11:20;101512.47;;;29.11;33.48
17438;BME280;70275;52.198;5.422;2023-06-10T10:13:51;101508.13;;;29.68;32.59
17438;BME280;70275;52.198;5.422;2023-06-10T10:16:37;101506.47;;;29.67;32.01
17438;BME280;70275;52.198;5.422;2023-06-10T10:19:15;101513.13;;;29.59;31.82
17438;BME280;70275;52.198;5.422;2023-06-10T10:21:55;101508.13;;;29.91;31.70
17438;BME280;70275;52.198;5.422;2023-06-10T10:24:33;101503.34;;;29.75;31.26
17438;BME280;70275;52.198;5.422;2023-06-10T10:27:14;101504.31;;;29.92;30.87
17438;BME280;70275;52.198;5.422;2023-06-10T10:29:48;101507.28;;;29.90;30.70
17438;BME280;70275;52.198;5.422;2023-06-10T10:32:37;101499.47;;;30.34;30.42
17438;BME280;70275;52.198;5.422;2023-06-10T10:35:14;101507.78;;;29.87;30.93
17438;BME280;70275;52.198;5.422;2023-06-10T10:37:47;101490.41;;;29.93;30.19
17438;BME280;70275;52.198;5.422;2023-06-10T10:40:16;101504.88;;;30.05;29.65
17438;BME280;70275;52.198;5.422;2023-06-10T10:42:47;101498.97;;;30.25;28.51
17438;BME280;70275;52.198;5.422;2023-06-10T10:45:16;101505.53;;;30.36;28.97
17438;BME280;70275;52.198;5.422;2023-06-10T10:47:53;101500.16;;;30.69;27.89
17438;BME280;70275;52.198;5.422;2023-06-10T10:50:23;101492.16;;;29.99;28.63
17438;BME280;70275;52.198;5.422;2023-06-10T10:52:55;101499.47;;;30.62;28.87
17438;BME280;70275;52.198;5.422;2023-06-10T10:55:25;101485.69;;;30.57;28.69
17438;BME280;70275;52.198;5.422;2023-06-10T10:57:56;101494.59;;;30.92;28.18
17438;BME280;70275;52.198;5.422;2023-06-10T11:00:28;101485.34;;;30.53;28.63
17438;BME280;70275;52.198;5.422;2023-06-10T11:03:06;101489.88;;;30.76;27.42
17438;BME280;70275;52.198;5.422;2023-06-10T11:05:41;101482.94;;;31.02;26.59
17438;BME280;70275;52.198;5.422;2023-06-10T11:08:14;101479.97;;;31.36;26.79
17438;BME280;70275;52.198;5.422;2023-06-10T11:10:51;101482.84;;;32.01;25.57
17438;BME280;70275;52.198;5.422;2023-06-10T11:13:22;101499.94;;;32.83;25.05
17438;BME280;70275;52.198;5.422;2023-06-10T11:15:51;101487.00;;;33.06;24.75
17438;BME280;70275;52.198;5.422;2023-06-10T11:18:25;101491.41;;;34.62;22.96
17438;BME280;70275;52.198;5.422;2023-06-10T11:20:58;101483.16;;;35.63;21.65
17438;BME280;70275;52.198;5.422;2023-06-10T11:23:43;101480.16;;;36.23;21.60
17438;BME280;70275;52.198;5.422;2023-06-10T11:26:22;101479.56;;;35.57;21.97
17438;BME280;70275;52.198;5.422;2023-06-10T11:29:18;101477.56;;;36.47;21.30
17438;BME280;70275;52.198;5.422;2023-06-10T11:31:50;101479.56;;;34.67;22.43
17438;BME280;70275;52.198;5.422;2023-06-10T11:34:26;101478.09;;;34.34;22.51
17438;BME280;70275;52.198;5.422;2023-06-10T11:36:55;101471.38;;;35.12;22.14
17438;BME280;70275;52.198;5.422;2023-06-10T11:39:26;101469.69;;;34.81;22.46
17438;BME280;70275;52.198;5.422;2023-06-10T11:41:55;101469.97;;;36.19;21.56
17438;BME280;70275;52.198;5.422;2023-06-10T11:44:28;101477.69;;;37.62;20.16
17438;BME280;70275;52.198;5.422;2023-06-10T11:47:00;101470.50;;;37.37;20.20
17438;BME280;70275;52.198;5.422;2023-06-10T11:49:32;101472.13;;;37.10;20.46
17438;BME280;70275;52.198;5.422;2023-06-10T11:52:03;101471.22;;;36.80;20.58
17438;BME280;70275;52.198;5.422;2023-06-10T11:54:33;101472.16;;;37.05;20.37
17438;BME280;70275;52.198;5.422;2023-06-10T11:57:02;101462.38;;;37.46;19.45
17438;BME280;70275;52.198;5.422;2023-06-10T11:59:34;101468.44;;;36.85;19.98
17438;BME280;70275;52.198;5.422;2023-06-10T12:02:03;101459.53;;;36.06;20.88
17438;BME280;70275;52.198;5.422;2023-06-10T12:04:35;101460.81;;;36.72;20.34
17438;BME280;70275;52.198;5.422;2023-06-10T12:07:04;101453.44;;;36.97;20.05
17438;BME280;70275;52.198;5.422;2023-06-10T12:09:33;101447.31;;;35.58;21.75
17438;BME280;70275;52.198;5.422;2023-06-10T12:12:04;101452.75;;;36.76;21.00
17438;BME280;70275;52.198;5.422;2023-06-10T12:15:05;101444.63;;;34.82;22.31
17438;BME280;70275;52.198;5.422;2023-06-10T12:17:38;101442.59;;;34.17;22.83
17438;BME280;70275;52.198;5.422;2023-06-10T12:20:26;101438.44;;;36.30;20.03
17438;BME280;70275;52.198;5.422;2023-06-10T12:22:56;101436.25;;;37.05;20.07
17438;BME280;70275;52.198;5.422;2023-06-10T12:25:26;101434.50;;;36.80;20.52
17438;BME280;70275;52.198;5.422;2023-06-10T12:27:58;101431.47;;;36.43;21.03
17438;BME280;70275;52.198;5.422;2023-06-10T12:30:28;101422.84;;;35.11;22.21
17438;BME280;70275;52.198;5.422;2023-06-10T12:32:58;101427.25;;;36.06;21.35
17438;BME280;70275;52.198;5.422;2023-06-10T12:35:29;101424.53;;;35.07;21.87
17438;BME280;70275;52.198;5.422;2023-06-10T12:38:01;101420.00;;;34.20;23.09
17438;BME280;70275;52.198;5.422;2023-06-10T12:40:36;101420.22;;;35.75;22.14
17438;BME280;70275;52.198;5.422;2023-06-10T12:43:06;101427.88;;;35.98;21.46
17438;BME280;70275;52.198;5.422;2023-06-10T12:45:37;101425.97;;;37.34;20.58
17438;BME280;70275;52.198;5.422;2023-06-10T12:48:11;101430.94;;;37.08;20.80
17438;BME280;70275;52.198;5.422;2023-06-10T12:50:43;101420.72;;;37.09;20.37
17438;BME280;70275;52.198;5.422;2023-06-10T12:53:12;101421.03;;;35.76;21.33
17438;BME280;70275;52.198;5.422;2023-06-10T12:55:41;101419.78;;;34.37;22.68
17438;BME280;70275;52.198;5.422;2023-06-10T12:58:11;101424.09;;;36.28;21.11
17438;BME280;70275;52.198;5.422;2023-06-10T13:00:41;101423.91;;;36.58;20.78
17438;BME280;70275;52.198;5.422;2023-06-10T13:03:10;101423.25;;;36.28;21.12
17438;BME280;70275;52.198;5.422;2023-06-10T13:05:42;101435.53;;;36.94;20.69
17438;BME280;70275;52.198;5.422;2023-06-10T13:08:11;101426.72;;;36.04;20.76